Invader — WDC6283 — position and weather

sailwx.info

Track history (hours):
 
Tides and Currents Weather Stations Pressure Air Temp Water Temp Dewpoint Dewpoint Depression Visibility Wind Speed Wind Dir Waves Ship Positions

Invader

Owner: Nautical Investiment Corporation, Amelia, LA. More information available from US FCC via Universal Licensing System and Coast Guard Vessel Documentation Center.

Last reported at 2014-Oct-25 03:34 UTC. Time now 2014-Oct-25 04:23 UTC.
Position N 29°41' W 091°12'.

Length 40 m; draft 3 m.

Type: Passenger vessel. MMSI: 367053990.

Date/timePositionNaut miles runAvg speedWind from/ knotsBaromVisibWave heightAir tempDewpointWater temp
2014-Oct-25 03:34N 29°41' W 091°12'0 0.0
2014-Oct-25 02:33N 29°41' W 091°12'0 0.0
2014-Oct-25 01:33N 29°41' W 091°12'1 0.9
2014-Oct-25 00:33N 29°41' W 091°13'1312.8
2014-Oct-24 23:34N 29°29' W 091°16'21 1.4
2014-Oct-24 08:24N 29°12' W 091°30'1618.5
2014-Oct-24 07:33N 29°25' W 091°21'1514.6
2014-Oct-24 06:34N 29°38' W 091°14'4 3.6
2014-Oct-24 05:33N 29°41' W 091°12'0 0.0
2014-Oct-24 04:34N 29°41' W 091°12'0 0.0
2014-Oct-24 03:34N 29°41' W 091°12'0 0.0
2014-Oct-24 02:33N 29°41' W 091°12'0 0.0
2014-Oct-24 01:34N 29°41' W 091°12'0 0.0
2014-Oct-24 00:33N 29°41' W 091°12'0 0.0
2014-Oct-23 23:34N 29°41' W 091°12'0 0.0
2014-Oct-23 22:33N 29°41' W 091°12'0 0.0
2014-Oct-23 21:33N 29°41' W 091°12'0 0.0
2014-Oct-23 20:34N 29°41' W 091°12'0 0.0
2014-Oct-23 19:33N 29°41' W 091°12'0 0.0
2014-Oct-23 18:34N 29°41' W 091°12'0 0.0
2014-Oct-23 17:34N 29°41' W 091°12'0 0.0
2014-Oct-23 16:33N 29°41' W 091°12'7 6.9
2014-Oct-23 15:33N 29°35' W 091°14'1512.8
2014-Oct-23 14:22N 29°22' W 091°23'4 0.6
2014-Oct-23 08:20N 29°19' W 091°26'1215.1
2014-Oct-23 07:33N 29°28' W 091°17'1313.0
2014-Oct-23 06:33N 29°40' W 091°14'2 1.8
2014-Oct-23 05:33N 29°41' W 091°12'0 0.0
2014-Oct-23 04:33N 29°41' W 091°12'0 0.0
2014-Oct-23 03:33N 29°41' W 091°12'0 0.0
2014-Oct-23 02:33N 29°41' W 091°12'0 0.0
2014-Oct-23 01:33N 29°41' W 091°12'0 0.0
2014-Oct-23 00:33N 29°41' W 091°12'0 0.0
2014-Oct-22 23:34N 29°41' W 091°12'0 0.0
2014-Oct-22 22:33N 29°41' W 091°12'0 0.0
2014-Oct-22 21:33N 29°41' W 091°12'0 0.0
2014-Oct-22 20:33N 29°41' W 091°12'2 2.0
2014-Oct-22 19:33N 29°40' W 091°14'1010.4
2014-Oct-22 18:33N 29°30' W 091°16'16 1.6
2014-Oct-22 08:33N 29°18' W 091°27'1615.6
2014-Oct-22 07:33N 29°30' W 091°16'1211.8
2014-Oct-22 06:33N 29°41' W 091°13'1 0.6
2014-Oct-22 05:33N 29°41' W 091°12'0 0.0
2014-Oct-22 04:33N 29°41' W 091°12'0 0.0
2014-Oct-22 03:33N 29°41' W 091°12'0 0.0
2014-Oct-22 02:33N 29°41' W 091°12'0 0.0
2014-Oct-22 01:33N 29°41' W 091°12'0 0.0
2014-Oct-22 00:33N 29°41' W 091°12'0 0.0
2014-Oct-21 23:33N 29°41' W 091°12'0 0.0
2014-Oct-21 22:33N 29°41' W 091°12'2 2.5
2014-Oct-21 21:33N 29°40' W 091°14'0 0.0
2014-Oct-21 20:33N 29°40' W 091°14'0 0.2
2014-Oct-21 19:33N 29°40' W 091°14'1413.4
2014-Oct-21 18:29N 29°26' W 091°19'4 0.3
2014-Oct-21 07:33N 29°24' W 091°22'1515.1
2014-Oct-21 06:33N 29°37' W 091°15'5 5.0
2014-Oct-21 05:33N 29°41' W 091°12'0 0.0
2014-Oct-21 04:33N 29°41' W 091°12'0 0.0
2014-Oct-21 03:33N 29°41' W 091°12'0 0.0
2014-Oct-21 02:33N 29°41' W 091°12'0 0.0
2014-Oct-21 01:33N 29°41' W 091°12'3 3.2
2014-Oct-21 00:33N 29°39' W 091°15'1312.7
2014-Oct-20 23:33N 29°27' W 091°18'4 0.3
2014-Oct-20 07:33N 29°24' W 091°22'1414.1
2014-Oct-20 06:33N 29°37' W 091°15'5 5.3
2014-Oct-20 05:33N 29°41' W 091°12'0 0.0
2014-Oct-20 04:33N 29°41' W 091°12'0 0.0
2014-Oct-20 03:33N 29°41' W 091°12'0 0.0
2014-Oct-20 02:33N 29°41' W 091°12'0 0.0
2014-Oct-20 01:33N 29°41' W 091°12'0 0.0
2014-Oct-20 00:33N 29°41' W 091°12'0 0.0
2014-Oct-19 23:33N 29°41' W 091°12'0 0.0
2014-Oct-19 22:33N 29°41' W 091°12'0 0.0
2014-Oct-19 21:33N 29°41' W 091°12'0 0.0
2014-Oct-19 20:33N 29°41' W 091°12'9 8.7
2014-Oct-19 19:33N 29°33' W 091°14'18 0.5
2014-Oct-18 06:30N 29°18' W 091°27'1616.9
2014-Oct-18 05:33N 29°31' W 091°16'1110.9
2014-Oct-18 04:33N 29°41' W 091°12'0 0.0
2014-Oct-18 03:33N 29°41' W 091°12'1 0.5
2014-Oct-18 02:33N 29°41' W 091°12'10 9.8
2014-Oct-18 01:34N 29°32' W 091°16'1514.8
2014-Oct-18 00:33N 29°20' W 091°25'2 0.1
2014-Oct-17 10:10N 29°18' W 091°26'915.1
2014-Oct-17 09:33N 29°26' W 091°20'9 8.9
2014-Oct-17 08:33N 29°33' W 091°14'8 8.4
2014-Oct-17 07:33N 29°41' W 091°12'0 0.1
2014-Oct-17 06:34N 29°41' W 091°12'2 2.4
2014-Oct-17 05:33N 29°40' W 091°14'3 3.0
2014-Oct-17 04:33N 29°37' W 091°15'1615.5
2014-Oct-17 03:33N 29°23' W 091°23'12 0.6
2014-Oct-16 08:07N 29°13' W 091°31'1017.5
2014-Oct-16 07:33N 29°21' W 091°24'1515.2
2014-Oct-16 06:34N 29°34' W 091°14'8 8.0
2014-Oct-16 05:33N 29°41' W 091°12'0 0.0
2014-Oct-16 04:33N 29°41' W 091°12'7 6.5
2014-Oct-16 03:34N 29°35' W 091°14'1616.1
2014-Oct-16 02:33N 29°21' W 091°24'5 0.3
2014-Oct-15 09:18N 29°17' W 091°28'1317.2
2014-Oct-15 08:33N 29°27' W 091°18'1312.8
2014-Oct-15 07:34N 29°39' W 091°14'1 1.2
2014-Oct-15 06:34N 29°40' W 091°14'2 2.2
2014-Oct-15 05:34N 29°41' W 091°12'0 0.0
2014-Oct-15 04:34N 29°41' W 091°12'  
Track history (hours):
 
Tides and Currents Weather Stations Pressure Air Temp Water Temp Dewpoint Dewpoint Depression Visibility Wind Speed Wind Dir Waves Ship Positions

Invader

Owner: Nautical Investiment Corporation, Amelia, LA. More information available from US FCC via Universal Licensing System and Coast Guard Vessel Documentation Center.

Last reported at 2014-Oct-25 03:34 UTC. Time now 2014-Oct-25 04:23 UTC.
Position N 29°41' W 091°12'.

Length 40 m; draft 3 m.

Type: Passenger vessel. MMSI: 367053990.

Date/timePositionNaut miles runAvg speedWind from/ knotsBaromVisibWave heightAir tempDewpointWater temp
2014-Oct-25 03:34N 29°41' W 091°12'0 0.0
2014-Oct-25 02:33N 29°41' W 091°12'0 0.0
2014-Oct-25 01:33N 29°41' W 091°12'1 0.9
2014-Oct-25 00:33N 29°41' W 091°13'1312.8
2014-Oct-24 23:34N 29°29' W 091°16'21 1.4
2014-Oct-24 08:24N 29°12' W 091°30'1618.5
2014-Oct-24 07:33N 29°25' W 091°21'1514.6
2014-Oct-24 06:34N 29°38' W 091°14'4 3.6
2014-Oct-24 05:33N 29°41' W 091°12'0 0.0
2014-Oct-24 04:34N 29°41' W 091°12'0 0.0
2014-Oct-24 03:34N 29°41' W 091°12'0 0.0
2014-Oct-24 02:33N 29°41' W 091°12'0 0.0
2014-Oct-24 01:34N 29°41' W 091°12'0 0.0
2014-Oct-24 00:33N 29°41' W 091°12'0 0.0
2014-Oct-23 23:34N 29°41' W 091°12'0 0.0
2014-Oct-23 22:33N 29°41' W 091°12'0 0.0
2014-Oct-23 21:33N 29°41' W 091°12'0 0.0
2014-Oct-23 20:34N 29°41' W 091°12'0 0.0
2014-Oct-23 19:33N 29°41' W 091°12'0 0.0
2014-Oct-23 18:34N 29°41' W 091°12'0 0.0
2014-Oct-23 17:34N 29°41' W 091°12'0 0.0
2014-Oct-23 16:33N 29°41' W 091°12'7 6.9
2014-Oct-23 15:33N 29°35' W 091°14'1512.8
2014-Oct-23 14:22N 29°22' W 091°23'4 0.6
2014-Oct-23 08:20N 29°19' W 091°26'1215.1
2014-Oct-23 07:33N 29°28' W 091°17'1313.0
2014-Oct-23 06:33N 29°40' W 091°14'2 1.8
2014-Oct-23 05:33N 29°41' W 091°12'0 0.0
2014-Oct-23 04:33N 29°41' W 091°12'0 0.0
2014-Oct-23 03:33N 29°41' W 091°12'0 0.0
2014-Oct-23 02:33N 29°41' W 091°12'0 0.0
2014-Oct-23 01:33N 29°41' W 091°12'0 0.0
2014-Oct-23 00:33N 29°41' W 091°12'0 0.0
2014-Oct-22 23:34N 29°41' W 091°12'0 0.0
2014-Oct-22 22:33N 29°41' W 091°12'0 0.0
2014-Oct-22 21:33N 29°41' W 091°12'0 0.0
2014-Oct-22 20:33N 29°41' W 091°12'2 2.0
2014-Oct-22 19:33N 29°40' W 091°14'1010.4
2014-Oct-22 18:33N 29°30' W 091°16'16 1.6
2014-Oct-22 08:33N 29°18' W 091°27'1615.6
2014-Oct-22 07:33N 29°30' W 091°16'1211.8
2014-Oct-22 06:33N 29°41' W 091°13'1 0.6
2014-Oct-22 05:33N 29°41' W 091°12'0 0.0
2014-Oct-22 04:33N 29°41' W 091°12'0 0.0
2014-Oct-22 03:33N 29°41' W 091°12'0 0.0
2014-Oct-22 02:33N 29°41' W 091°12'0 0.0
2014-Oct-22 01:33N 29°41' W 091°12'0 0.0
2014-Oct-22 00:33N 29°41' W 091°12'0 0.0
2014-Oct-21 23:33N 29°41' W 091°12'0 0.0
2014-Oct-21 22:33N 29°41' W 091°12'2 2.5
2014-Oct-21 21:33N 29°40' W 091°14'0 0.0
2014-Oct-21 20:33N 29°40' W 091°14'0 0.2
2014-Oct-21 19:33N 29°40' W 091°14'1413.4
2014-Oct-21 18:29N 29°26' W 091°19'4 0.3
2014-Oct-21 07:33N 29°24' W 091°22'1515.1
2014-Oct-21 06:33N 29°37' W 091°15'5 5.0
2014-Oct-21 05:33N 29°41' W 091°12'0 0.0
2014-Oct-21 04:33N 29°41' W 091°12'0 0.0
2014-Oct-21 03:33N 29°41' W 091°12'0 0.0
2014-Oct-21 02:33N 29°41' W 091°12'0 0.0
2014-Oct-21 01:33N 29°41' W 091°12'3 3.2
2014-Oct-21 00:33N 29°39' W 091°15'1312.7
2014-Oct-20 23:33N 29°27' W 091°18'4 0.3
2014-Oct-20 07:33N 29°24' W 091°22'1414.1
2014-Oct-20 06:33N 29°37' W 091°15'5 5.3
2014-Oct-20 05:33N 29°41' W 091°12'0 0.0
2014-Oct-20 04:33N 29°41' W 091°12'0 0.0
2014-Oct-20 03:33N 29°41' W 091°12'0 0.0
2014-Oct-20 02:33N 29°41' W 091°12'0 0.0
2014-Oct-20 01:33N 29°41' W 091°12'0 0.0
2014-Oct-20 00:33N 29°41' W 091°12'0 0.0
2014-Oct-19 23:33N 29°41' W 091°12'0 0.0
2014-Oct-19 22:33N 29°41' W 091°12'0 0.0
2014-Oct-19 21:33N 29°41' W 091°12'0 0.0
2014-Oct-19 20:33N 29°41' W 091°12'9 8.7
2014-Oct-19 19:33N 29°33' W 091°14'18 0.5
2014-Oct-18 06:30N 29°18' W 091°27'1616.9
2014-Oct-18 05:33N 29°31' W 091°16'1110.9
2014-Oct-18 04:33N 29°41' W 091°12'0 0.0
2014-Oct-18 03:33N 29°41' W 091°12'1 0.5
2014-Oct-18 02:33N 29°41' W 091°12'10 9.8
2014-Oct-18 01:34N 29°32' W 091°16'1514.8
2014-Oct-18 00:33N 29°20' W 091°25'2 0.1
2014-Oct-17 10:10N 29°18' W 091°26'915.1
2014-Oct-17 09:33N 29°26' W 091°20'9 8.9
2014-Oct-17 08:33N 29°33' W 091°14'8 8.4
2014-Oct-17 07:33N 29°41' W 091°12'0 0.1
2014-Oct-17 06:34N 29°41' W 091°12'2 2.4
2014-Oct-17 05:33N 29°40' W 091°14'3 3.0
2014-Oct-17 04:33N 29°37' W 091°15'1615.5
2014-Oct-17 03:33N 29°23' W 091°23'12 0.6
2014-Oct-16 08:07N 29°13' W 091°31'1017.5
2014-Oct-16 07:33N 29°21' W 091°24'1515.2
2014-Oct-16 06:34N 29°34' W 091°14'8 8.0
2014-Oct-16 05:33N 29°41' W 091°12'0 0.0
2014-Oct-16 04:33N 29°41' W 091°12'7 6.5
2014-Oct-16 03:34N 29°35' W 091°14'1616.1
2014-Oct-16 02:33N 29°21' W 091°24'5 0.3
2014-Oct-15 09:18N 29°17' W 091°28'1317.2
2014-Oct-15 08:33N 29°27' W 091°18'1312.8
2014-Oct-15 07:34N 29°39' W 091°14'1 1.2
2014-Oct-15 06:34N 29°40' W 091°14'2 2.2
2014-Oct-15 05:34N 29°41' W 091°12'0 0.0
2014-Oct-15 04:34N 29°41' W 091°12'  

Dump ship's entire track history